»·PEaware :: SWA700 KSFO-KSAN

SWA700 :: KSFO-KSAN

FLIGHT INFORMATION

Flight Status: Arrived
Operator:
Southwest Airlines
More flights by this operator :: More flights under this callsign
Pilot: Maximilliano F. (23467)
Aircraft: BOEING 737-800
(B738)
More flights by this aircraft type
Origin: KSFO San Francisco Intl
United States
Destination: KSAN San Diego Intl-Lindbergh
United States
More flights between these airports :: More routes between these airports
Route: OFFSH2 MCKEY LAX COMIX2
File this flight plan on PilotEdge
Remarks: RMK / SIMBRIEF
Altitude:
(Current/Filed)
35,000ft
Speed:
(Current/Filed)
455kts
Departed: 15-Oct-19 02:54 PM
Arrived: 15-Oct-19 04:02 PM
Distance/Time
Traveled:
388nm/1:08
Distance/Time
To Go:
Arrived

Flight Plot

Page will automatically refresh every two minutes.

Flight plan parsing failed; only flown route is shown


Map Options




Map Legend


Flown Route
Filed Route
Departure Airport
Arrival Airport
Navaid (VOR, NDB)
Fix

Horizontal Profiles

Position Reports

Time Latitude Longitude Heading Altitude Ground
Speed
15-Oct-19 14:25 37.612641 -122.384669 6 34ft 0kts
15-Oct-19 14:26 37.612641 -122.384669 6 34ft 0kts
15-Oct-19 14:26 37.612641 -122.384669 6 34ft 0kts
15-Oct-19 14:28 37.612641 -122.384669 6 34ft 0kts
15-Oct-19 14:28 37.612641 -122.384669 6 34ft 0kts
15-Oct-19 14:29 37.612641 -122.384669 6 34ft 0kts
15-Oct-19 14:30 37.612641 -122.384669 6 34ft 0kts
15-Oct-19 14:32 37.612641 -122.384669 6 34ft 0kts
15-Oct-19 14:32 37.612641 -122.384669 6 34ft 0kts
15-Oct-19 14:33 37.612641 -122.384669 6 34ft 0kts
15-Oct-19 14:34 37.612641 -122.384669 6 34ft 0kts
15-Oct-19 14:35 37.612641 -122.384669 6 34ft 0kts
15-Oct-19 14:36 37.612641 -122.384669 6 34ft 0kts
15-Oct-19 14:37 37.612641 -122.384669 6 34ft 0kts
15-Oct-19 14:38 37.612641 -122.384669 6 34ft 0kts
15-Oct-19 14:39 37.612641 -122.384669 6 34ft 0kts
15-Oct-19 14:40 37.612641 -122.384669 6 34ft 0kts
15-Oct-19 14:41 37.612373 -122.384890 65 34ft 2kts
15-Oct-19 14:42 37.612339 -122.385156 99 34ft 0kts
15-Oct-19 14:43 37.612339 -122.385156 99 34ft 0kts
15-Oct-19 14:44 37.612251 -122.384870 127 34ft 3kts
15-Oct-19 14:45 37.610618 -122.384166 65 33ft 7kts
15-Oct-19 14:46 37.611095 -122.384073 339 34ft 0kts
15-Oct-19 14:47 37.611114 -122.384811 167 34ft 2kts
15-Oct-19 14:48 37.610822 -122.384750 168 34ft 0kts
15-Oct-19 14:49 37.610561 -122.384470 121 33ft 0kts
15-Oct-19 14:50 37.609120 -122.383505 124 33ft 2kts
15-Oct-19 14:51 37.609115 -122.383497 124 33ft 0kts
15-Oct-19 14:52 37.608869 -122.382364 53 31ft 7kts
15-Oct-19 14:53 37.632749 -122.366288 28 610ft 184kts
15-Oct-19 14:54 37.687329 -122.364677 353 2999ft 244kts
15-Oct-19 14:55 37.726260 -122.422412 245 6263ft 279kts
15-Oct-19 14:56 37.662870 -122.469572 206 10126ft 282kts
15-Oct-19 14:57 37.591620 -122.521047 213 10098ft 298kts
15-Oct-19 14:58 37.527548 -122.575805 194 10000ft 266kts
15-Oct-19 14:59 37.444180 -122.578305 179 10005ft 317kts
15-Oct-19 15:00 37.352167 -122.577206 180 13784ft 342kts
15-Oct-19 15:01 37.254267 -122.575875 180 17409ft 366kts
15-Oct-19 15:02 37.150193 -122.574532 181 20691ft 386kts
15-Oct-19 15:03 37.040339 -122.573120 181 23635ft 405kts
15-Oct-19 15:04 36.926198 -122.563380 170 26253ft 426kts
15-Oct-19 15:05 36.810157 -122.532312 170 29165ft 427kts
15-Oct-19 15:06 36.694636 -122.502364 170 31752ft 424kts
15-Oct-19 15:07 36.579957 -122.472715 171 33876ft 422kts
15-Oct-19 15:08 36.465861 -122.438941 160 35094ft 428kts
15-Oct-19 15:09 36.370404 -122.355241 132 35107ft 425kts
15-Oct-19 15:10 36.291466 -122.240843 130 35107ft 458kts
15-Oct-19 15:11 36.206253 -122.116791 130 35106ft 493kts
15-Oct-19 15:12 36.116585 -121.986758 130 35105ft 494kts
15-Oct-19 15:13 36.027264 -121.857740 130 35112ft 495kts
15-Oct-19 15:14 35.937558 -121.728641 130 35096ft 497kts
15-Oct-19 15:15 35.848403 -121.600830 130 35061ft 496kts
15-Oct-19 15:16 35.758201 -121.472009 130 35056ft 498kts
15-Oct-19 15:17 35.667507 -121.342969 130 35055ft 499kts
15-Oct-19 15:18 35.576575 -121.214039 130 35052ft 499kts
15-Oct-19 15:19 35.485864 -121.085580 127 35054ft 499kts
15-Oct-19 15:20 35.405840 -120.946119 123 35061ft 499kts
15-Oct-19 15:21 35.326709 -120.806252 123 35065ft 499kts
15-Oct-19 15:22 35.247527 -120.666877 123 35066ft 500kts
15-Oct-19 15:23 35.167707 -120.526926 123 35068ft 501kts
15-Oct-19 15:24 35.087878 -120.387521 123 35068ft 501kts
15-Oct-19 15:25 35.008136 -120.248762 123 35066ft 502kts
15-Oct-19 15:26 34.927817 -120.109600 123 35080ft 503kts
15-Oct-19 15:27 34.849160 -119.973829 123 35082ft 505kts
15-Oct-19 15:28 34.767577 -119.833591 123 35066ft 506kts
15-Oct-19 15:29 34.686473 -119.694692 123 35054ft 507kts
15-Oct-19 15:30 34.604478 -119.554833 123 35055ft 507kts
15-Oct-19 15:31 34.522622 -119.415744 123 35057ft 508kts
15-Oct-19 15:32 34.441014 -119.277569 123 35054ft 508kts
15-Oct-19 15:33 34.358071 -119.137719 123 35055ft 509kts
15-Oct-19 15:34 34.274942 -118.998110 123 35062ft 509kts
15-Oct-19 15:35 34.191654 -118.858763 123 35080ft 511kts
15-Oct-19 15:36 34.107774 -118.718984 123 35045ft 513kts
15-Oct-19 15:37 34.024088 -118.580065 123 35025ft 513kts
15-Oct-19 15:38 33.937860 -118.438617 129 35020ft 513kts
15-Oct-19 15:39 33.849559 -118.323695 131 35006ft 481kts
15-Oct-19 15:40 33.762241 -118.210672 131 34954ft 492kts
15-Oct-19 15:41 33.668792 -118.087742 130 31741ft 504kts
15-Oct-19 15:42 33.575148 -117.965140 130 28447ft 488kts
15-Oct-19 15:43 33.481340 -117.852758 135 25475ft 466kts
15-Oct-19 15:44 33.388887 -117.749999 138 22576ft 441kts
15-Oct-19 15:45 33.299904 -117.655334 137 19789ft 417kts
15-Oct-19 15:46 33.215493 -117.565808 137 17107ft 395kts
15-Oct-19 15:47 33.135163 -117.482086 142 14499ft 374kts
15-Oct-19 15:48 33.052136 -117.412690 143 12015ft 353kts
15-Oct-19 15:49 32.977605 -117.350189 143 10886ft 302kts
15-Oct-19 15:50 32.913706 -117.296683 143 9965ft 263kts
15-Oct-19 15:51 32.855760 -117.248534 142 8632ft 248kts
15-Oct-19 15:52 32.809063 -117.192718 112 7366ft 236kts
15-Oct-19 15:53 32.789954 -117.114012 103 6318ft 246kts
15-Oct-19 15:54 32.773268 -117.040901 104 6013ft 221kts
15-Oct-19 15:55 32.754842 -116.972584 123 5141ft 218kts
15-Oct-19 15:56 32.700250 -116.964463 221 4200ft 227kts
15-Oct-19 15:57 32.696528 -117.033398 285 2968ft 212kts
15-Oct-19 15:58 32.709182 -117.089490 287 1850ft 158kts
15-Oct-19 15:59 32.720797 -117.137125 286 787ft 145kts
15-Oct-19 16:00 32.731656 -117.181957 286 55ft 142kts
15-Oct-19 16:01 32.734998 -117.198607 248 20ft 0kts
15-Oct-19 16:02 32.734598 -117.198231 104 20ft 9kts
15-Oct-19 16:03 32.733029 -117.197290 194 21ft 5kts
15-Oct-19 16:04 32.732950 -117.197782 307 21ft 0kts
15-Oct-19 16:05 32.732950 -117.197782 307 21ft 0kts

Navigation Log

Ident Type
Flight plan parsing failed, navigation log unavailable